createdAt,value
2023-05-07T00:02:19.930Z,101379.74
2023-05-07T00:04:47.189Z,101373.08
2023-05-07T00:07:14.261Z,101366.96
2023-05-07T00:09:41.307Z,101360.02
2023-05-07T00:12:08.734Z,101355.46
2023-05-07T00:14:35.709Z,101356.49
2023-05-07T00:17:02.957Z,101358.27
2023-05-07T00:19:30.003Z,101355.73
2023-05-07T00:21:57.591Z,101353.44
2023-05-07T00:24:25.229Z,101357.95
2023-05-07T00:26:52.267Z,101368.04
2023-05-07T00:29:19.393Z,101369.61
2023-05-07T00:31:47.025Z,101369.67
2023-05-07T00:34:14.281Z,101368.13
2023-05-07T00:36:42.204Z,101368.77
2023-05-07T00:39:09.249Z,101374.30
2023-05-07T00:41:36.292Z,101377.90
2023-05-07T00:44:04.878Z,101375.56
2023-05-07T00:46:32.128Z,101380.56
2023-05-07T00:48:59.279Z,101382.31
2023-05-07T00:51:27.918Z,101386.58
2023-05-07T00:53:54.933Z,101384.55
2023-05-07T00:56:22.668Z,101386.25
2023-05-07T00:58:50.291Z,101388.89
2023-05-07T01:01:17.877Z,101387.77
2023-05-07T01:03:45.177Z,101391.59
2023-05-07T01:06:13.945Z,101393.56
2023-05-07T01:08:42.011Z,101393.38
2023-05-07T01:11:09.195Z,101396.09
2023-05-07T01:13:36.505Z,101396.35
2023-05-07T01:16:04.382Z,101397.46
2023-05-07T01:18:31.933Z,101401.27
2023-05-07T01:20:59.800Z,101403.84
2023-05-07T01:23:27.866Z,101409.21
2023-05-07T01:25:55.427Z,101409.31
2023-05-07T01:28:24.011Z,101417.84
2023-05-07T01:30:56.717Z,101425.26
2023-05-07T01:33:24.558Z,101430.48
2023-05-07T01:37:48.244Z,101411.02
2023-05-07T01:40:15.389Z,101433.10
2023-05-07T01:42:43.256Z,101450.34
2023-05-07T01:45:11.008Z,101466.58
2023-05-07T01:47:38.575Z,101482.56
2023-05-07T01:50:07.238Z,101498.67
2023-05-07T01:52:34.199Z,101512.27
2023-05-07T01:55:01.247Z,101526.17
2023-05-07T01:57:28.293Z,101543.45
2023-05-07T01:59:55.458Z,101552.74
2023-05-07T02:02:23.122Z,101559.92
2023-05-07T02:04:50.982Z,101563.17
2023-05-07T02:07:18.942Z,101573.38
2023-05-07T02:09:46.191Z,101581.55
2023-05-07T02:12:13.451Z,101589.79
2023-05-07T02:14:40.596Z,101605.20
2023-05-07T02:17:08.878Z,101618.29
2023-05-07T02:19:36.423Z,101625.85
2023-05-07T02:22:03.522Z,101630.91
2023-05-07T02:24:31.444Z,101640.67
2023-05-07T02:26:58.594Z,101653.02
2023-05-07T02:29:26.418Z,101664.00
2023-05-07T02:31:54.470Z,101674.07
2023-05-07T02:34:21.580Z,101678.98
2023-05-07T02:36:49.446Z,101683.73
2023-05-07T02:39:19.156Z,101687.91
2023-05-07T02:41:46.709Z,101697.12
2023-05-07T02:44:13.766Z,101698.77
2023-05-07T02:46:40.910Z,101704.34
2023-05-07T02:49:09.695Z,101693.77
2023-05-07T02:51:36.742Z,101684.16
2023-05-07T02:54:06.042Z,101676.36
2023-05-07T02:56:33.495Z,101664.66
2023-05-07T02:59:00.456Z,101654.35
2023-05-07T03:01:30.076Z,101645.02
2023-05-07T03:04:02.600Z,101632.73
2023-05-07T03:06:29.882Z,101628.61
2023-05-07T03:08:56.824Z,101622.17
2023-05-07T03:11:23.868Z,101609.23
2023-05-07T03:13:51.327Z,101594.35
2023-05-07T03:16:19.155Z,101585.02
2023-05-07T03:18:46.312Z,101570.54
2023-05-07T03:21:13.392Z,101550.80
2023-05-07T03:23:40.432Z,101531.91
2023-05-07T03:26:08.628Z,101505.95
2023-05-07T03:28:36.066Z,101474.55
2023-05-07T03:31:04.689Z,101456.12
2023-05-07T03:33:34.454Z,101430.70
2023-05-07T03:36:01.596Z,101411.56
2023-05-07T03:38:28.960Z,101395.80
2023-05-07T03:40:56.112Z,101394.60
2023-05-07T03:43:23.168Z,101393.44
2023-05-07T03:45:56.067Z,101390.66
2023-05-07T03:48:26.056Z,101392.18
2023-05-07T03:50:54.432Z,101405.08
2023-05-07T03:53:21.580Z,101416.68
2023-05-07T03:55:48.727Z,101422.77
2023-05-07T03:58:16.614Z,101444.13
2023-05-07T04:00:43.859Z,101477.95
2023-05-07T04:03:18.659Z,101514.68
2023-05-07T04:05:45.933Z,101538.58
2023-05-07T04:08:12.980Z,101555.59
2023-05-07T04:10:42.075Z,101580.56
2023-05-07T04:13:10.710Z,101594.35
2023-05-07T04:15:37.801Z,101609.17
2023-05-07T04:18:07.794Z,101620.95
2023-05-07T04:20:37.528Z,101633.24
2023-05-07T04:23:05.703Z,101636.04
2023-05-07T04:25:33.366Z,101639.88
2023-05-07T04:28:09.320Z,101638.20
2023-05-07T04:30:36.288Z,101644.04
2023-05-07T04:33:03.859Z,101642.23
2023-05-07T04:35:32.203Z,101639.73
2023-05-07T04:37:59.452Z,101637.41
2023-05-07T04:40:26.913Z,101625.66
2023-05-07T04:42:54.980Z,101590.72
2023-05-07T04:45:22.754Z,101549.11
2023-05-07T04:47:51.177Z,101397.78
2023-05-07T04:50:20.520Z,101387.26
2023-05-07T04:52:48.195Z,101383.72
2023-05-07T04:55:16.048Z,101458.54
2023-05-07T04:57:43.297Z,101516.79
2023-05-07T05:00:12.295Z,101543.03
2023-05-07T05:02:39.839Z,101510.89
2023-05-07T05:05:08.024Z,101481.82
2023-05-07T05:07:35.071Z,101441.39
2023-05-07T05:10:04.202Z,101357.91
2023-05-07T05:12:32.060Z,101369.70
2023-05-07T05:14:59.704Z,101364.94
2023-05-07T05:17:26.989Z,101277.36
2023-05-07T05:19:54.004Z,101208.67
2023-05-07T05:22:22.473Z,101116.35
2023-05-07T05:24:49.932Z,101165.96
2023-05-07T05:27:17.011Z,101241.91
2023-05-07T05:29:44.538Z,101315.62
2023-05-07T05:32:12.196Z,101179.04
2023-05-07T05:34:39.463Z,101160.27
2023-05-07T05:37:07.318Z,101100.00
2023-05-07T05:39:35.188Z,101086.56
2023-05-07T05:42:03.836Z,101217.80
2023-05-07T05:44:31.529Z,101084.80
2023-05-07T05:47:00.434Z,101075.66
2023-05-07T05:49:27.792Z,101028.09
2023-05-07T05:51:55.137Z,101064.43
2023-05-07T05:54:24.323Z,101060.59
2023-05-07T05:56:51.478Z,100929.58
2023-05-07T05:59:19.226Z,100905.45
2023-05-07T06:01:46.577Z,100862.38
2023-05-07T06:04:13.745Z,100845.73
2023-05-07T06:06:41.005Z,100794.23
2023-05-07T06:09:08.145Z,100899.04
2023-05-07T06:11:38.567Z,100973.60
2023-05-07T06:14:06.434Z,100890.43
2023-05-07T06:16:34.118Z,100834.17
2023-05-07T06:19:01.877Z,100845.33
2023-05-07T06:21:29.008Z,100848.50
2023-05-07T06:23:56.157Z,100628.28
2023-05-07T06:26:23.514Z,100518.53
2023-05-07T06:28:50.865Z,100513.60
2023-05-07T06:31:21.731Z,100594.96
2023-05-07T06:34:08.944Z,100629.86
2023-05-07T06:36:38.222Z,100662.88
2023-05-07T06:39:28.420Z,100682.06
2023-05-07T06:41:55.565Z,100789.86
2023-05-07T06:44:27.215Z,100661.14
2023-05-07T06:47:07.584Z,100581.34
2023-05-07T06:49:35.031Z,100622.96
2023-05-07T06:52:02.796Z,100783.89
2023-05-07T06:54:30.555Z,100891.13
2023-05-07T06:56:58.937Z,100835.01
2023-05-07T06:59:27.323Z,100684.32
2023-05-07T07:01:55.979Z,100552.27
2023-05-07T07:04:25.148Z,100551.20
2023-05-07T07:06:59.308Z,100647.30
2023-05-07T07:09:26.235Z,100612.23
2023-05-07T07:11:54.319Z,100677.49
2023-05-07T07:14:21.999Z,100648.39
2023-05-07T07:16:51.285Z,100632.60
2023-05-07T07:19:19.146Z,100545.85
2023-05-07T07:21:47.424Z,100509.68
2023-05-07T07:24:20.357Z,100482.35
2023-05-07T07:26:49.296Z,100569.45
2023-05-07T07:29:17.177Z,100554.80
2023-05-07T07:31:44.389Z,100524.59
2023-05-07T07:34:11.477Z,100510.58
2023-05-07T07:36:46.100Z,100399.68
2023-05-07T07:39:16.815Z,100393.31
2023-05-07T07:41:44.085Z,100355.92
2023-05-07T07:44:15.803Z,100284.84
2023-05-07T07:46:45.626Z,100273.26
2023-05-07T07:49:12.895Z,100193.08
2023-05-07T07:51:40.270Z,100108.53
2023-05-07T07:54:07.516Z,100121.08
2023-05-07T07:56:37.518Z,100170.20
2023-05-07T07:59:04.664Z,100144.20
2023-05-07T08:01:32.426Z,100061.63
2023-05-07T08:04:00.247Z,100029.69
2023-05-07T08:06:28.161Z,100028.55
2023-05-07T08:08:55.517Z,99912.14
2023-05-07T08:11:23.282Z,99934.77
2023-05-07T08:13:50.740Z,99919.01
2023-05-07T08:16:17.802Z,99895.50
2023-05-07T08:18:47.039Z,99963.31
2023-05-07T08:21:14.434Z,100002.85
2023-05-07T08:23:41.482Z,100049.55
2023-05-07T08:26:09.873Z,100101.23
2023-05-07T08:28:37.035Z,100163.48
2023-05-07T08:31:04.246Z,100015.60
2023-05-07T08:33:35.126Z,99967.83
2023-05-07T08:36:02.251Z,99933.72
2023-05-07T08:38:29.921Z,99849.41
2023-05-07T08:40:57.575Z,99927.24
2023-05-07T08:43:27.589Z,99924.25
2023-05-07T08:45:55.522Z,99976.95
2023-05-07T08:48:25.484Z,99771.41
2023-05-07T08:50:58.856Z,99840.12
2023-05-07T08:53:26.937Z,99826.62
2023-05-07T08:55:54.913Z,99563.44
2023-05-07T08:58:22.273Z,99296.02
2023-05-07T09:00:49.922Z,99417.70
2023-05-07T09:03:17.864Z,99500.79
2023-05-07T09:05:47.388Z,99551.73
2023-05-07T09:08:16.377Z,99470.96
2023-05-07T09:10:43.536Z,99593.10
2023-05-07T09:13:12.259Z,99617.13
2023-05-07T09:15:39.780Z,99634.11
2023-05-07T09:18:07.118Z,99578.40
2023-05-07T09:20:35.103Z,99581.70
2023-05-07T09:23:02.458Z,99590.45
2023-05-07T09:25:31.324Z,99626.89
2023-05-07T09:28:00.047Z,99622.91
2023-05-07T09:30:33.213Z,99637.24
2023-05-07T09:33:02.099Z,99618.22
2023-05-07T09:35:29.463Z,99657.63
2023-05-07T09:38:02.356Z,99709.48
2023-05-07T09:40:32.157Z,99721.63
2023-05-07T09:43:12.962Z,99797.27
2023-05-07T09:45:43.524Z,99737.23
2023-05-07T09:48:11.736Z,99738.33
2023-05-07T09:50:47.670Z,99686.00
2023-05-07T09:53:14.935Z,99638.58
2023-05-07T09:55:42.704Z,99646.11
2023-05-07T09:58:10.170Z,99630.69
2023-05-07T10:00:37.627Z,99709.31
2023-05-07T10:03:08.297Z,99644.58
2023-05-07T10:05:41.638Z,99575.77
2023-05-07T10:08:09.306Z,99622.56
2023-05-07T10:10:37.164Z,99611.84
2023-05-07T10:13:07.132Z,99515.06
2023-05-07T10:15:34.537Z,99459.42
2023-05-07T10:18:02.115Z,99502.02
2023-05-07T10:20:30.266Z,99482.80
2023-05-07T10:22:57.729Z,99387.38
2023-05-07T10:25:33.279Z,99413.60
2023-05-07T10:28:07.455Z,99429.73
2023-05-07T10:31:02.665Z,99424.48
2023-05-07T10:33:35.580Z,99400.26
2023-05-07T10:36:05.658Z,99373.02
2023-05-07T10:38:33.573Z,99450.17
2023-05-07T10:41:00.934Z,99363.40
2023-05-07T10:43:43.217Z,99305.69
2023-05-07T10:46:17.567Z,99339.36
2023-05-07T10:49:03.229Z,99352.94
2023-05-07T10:51:37.338Z,99311.36
2023-05-07T10:54:20.892Z,99334.63
2023-05-07T10:56:57.034Z,99411.27
2023-05-07T10:59:35.262Z,99493.81
2023-05-07T11:02:09.304Z,99433.70
2023-05-07T11:05:24.575Z,99425.45
2023-05-07T11:08:13.381Z,99405.48
2023-05-07T11:10:55.170Z,99477.20
2023-05-07T11:13:48.742Z,99502.96
2023-05-07T11:16:31.289Z,99582.60
2023-05-07T11:19:08.435Z,99572.66
2023-05-07T11:21:41.528Z,99405.48
2023-05-07T11:24:43.998Z,99395.95
2023-05-07T11:27:12.897Z,99363.86
2023-05-07T11:29:39.838Z,99348.83
2023-05-07T11:32:11.516Z,99405.32
2023-05-07T11:34:43.656Z,99397.95
2023-05-07T11:37:10.718Z,99472.61
2023-05-07T11:39:43.184Z,99363.81
2023-05-07T11:42:29.995Z,99401.20
2023-05-07T11:44:56.924Z,99350.92
2023-05-07T11:47:23.904Z,99461.38
2023-05-07T11:49:52.071Z,99402.64
2023-05-07T11:52:19.817Z,99350.77
2023-05-07T11:54:54.055Z,99452.32
2023-05-07T11:57:21.177Z,99490.54
2023-05-07T11:59:51.195Z,99489.73
2023-05-07T12:02:18.651Z,99459.09
2023-05-07T12:04:45.902Z,99419.75
2023-05-07T12:07:14.644Z,99340.21
2023-05-07T12:09:42.561Z,99394.89
2023-05-07T12:12:09.704Z,99382.55
2023-05-07T12:14:44.339Z,99434.10
2023-05-07T12:17:12.790Z,99354.44
2023-05-07T12:19:40.980Z,99378.21
2023-05-07T12:22:09.474Z,99406.14
2023-05-07T12:24:50.919Z,99467.60
2023-05-07T12:27:18.105Z,99410.29
2023-05-07T12:29:47.533Z,99409.51
2023-05-07T12:32:19.000Z,99314.71
2023-05-07T12:34:46.177Z,99199.98
2023-05-07T12:37:14.006Z,99203.44
2023-05-07T12:39:51.259Z,99250.48
2023-05-07T12:42:20.938Z,99259.94
2023-05-07T12:44:47.985Z,99270.39
2023-05-07T12:47:16.086Z,99380.70
2023-05-07T12:49:43.255Z,99407.89
2023-05-07T12:52:10.697Z,99359.27
2023-05-07T12:54:38.978Z,99324.90
2023-05-07T12:57:07.557Z,99253.25
2023-05-07T12:59:39.409Z,99179.89
2023-05-07T13:02:07.276Z,99192.90
2023-05-07T13:04:35.459Z,99164.05
2023-05-07T13:10:35.894Z,99278.59
2023-05-07T13:13:03.802Z,99304.06
2023-05-07T13:15:30.699Z,99257.53
2023-05-07T13:17:57.623Z,99175.18
2023-05-07T13:20:25.098Z,99173.44
2023-05-07T13:22:52.760Z,99152.80
2023-05-07T13:25:19.810Z,99153.83
2023-05-07T13:27:51.516Z,99054.57
2023-05-07T13:30:23.630Z,99060.27
2023-05-07T13:32:52.565Z,99117.99
2023-05-07T13:35:19.462Z,99060.69
2023-05-07T13:37:46.323Z,99049.80
2023-05-07T13:40:13.648Z,98990.97
2023-05-07T13:42:40.909Z,98936.27
2023-05-07T13:45:09.578Z,98964.91
2023-05-07T13:47:40.182Z,98881.38
2023-05-07T13:50:11.980Z,98968.73
2023-05-07T13:52:45.740Z,98934.98
2023-05-07T13:55:55.429Z,98850.92
2023-05-07T13:58:22.479Z,98835.47
2023-05-07T14:00:49.587Z,98851.09
2023-05-07T14:03:17.086Z,98920.54
2023-05-07T14:05:44.339Z,98919.45
2023-05-07T14:08:12.199Z,99026.76
2023-05-07T14:10:39.245Z,99024.30
2023-05-07T14:13:06.466Z,99006.48
2023-05-07T14:15:36.314Z,99013.91
2023-05-07T14:18:03.634Z,98966.45
2023-05-07T14:20:32.255Z,98898.89
2023-05-07T14:22:59.310Z,98893.49
2023-05-07T14:25:26.348Z,98922.45
2023-05-07T14:27:53.282Z,98871.89
2023-05-07T14:30:20.538Z,98891.20
2023-05-07T14:32:47.620Z,98844.99
2023-05-07T14:35:14.973Z,98873.96
2023-05-07T14:37:42.298Z,98949.84
2023-05-07T14:40:10.105Z,98962.64
2023-05-07T14:42:37.303Z,98972.88
2023-05-07T14:45:04.968Z,98988.05
2023-05-07T14:47:32.013Z,99002.23
2023-05-07T14:50:00.215Z,99016.75
2023-05-07T14:52:27.442Z,99073.06
2023-05-07T14:54:54.492Z,99124.13
2023-05-07T14:57:21.741Z,99172.84
2023-05-07T14:59:48.786Z,99185.55
2023-05-07T15:02:16.542Z,99166.29
2023-05-07T15:04:47.172Z,99241.47
2023-05-07T15:07:19.179Z,99296.84
2023-05-07T15:09:46.291Z,99291.52
2023-05-07T15:12:13.445Z,99319.39
2023-05-07T15:14:41.206Z,99356.85
2023-05-07T15:17:09.278Z,99378.75
2023-05-07T15:19:36.342Z,99403.02
2023-05-07T15:22:04.017Z,99432.42
2023-05-07T15:24:31.543Z,99437.48
2023-05-07T15:27:03.302Z,99451.89
2023-05-07T15:29:31.059Z,99486.02
2023-05-07T15:31:58.569Z,99492.04
2023-05-07T15:34:25.673Z,99551.41
2023-05-07T15:36:52.592Z,99629.66
2023-05-07T15:39:19.661Z,99660.31
2023-05-07T15:41:46.906Z,99629.33
2023-05-07T15:44:13.970Z,99607.90
2023-05-07T15:46:40.901Z,99597.66
2023-05-07T15:49:08.634Z,99646.64
2023-05-07T15:51:35.943Z,99646.87
2023-05-07T15:54:02.965Z,99665.98
2023-05-07T15:56:33.999Z,99720.34
2023-05-07T15:59:01.264Z,99767.87
2023-05-07T16:01:28.759Z,99803.00
2023-05-07T16:03:56.204Z,99799.52
2023-05-07T16:06:23.218Z,99774.31
2023-05-07T16:08:50.162Z,99769.56
2023-05-07T16:11:17.110Z,99793.52
2023-05-07T16:13:44.156Z,99820.92
2023-05-07T16:16:11.203Z,99843.33
2023-05-07T16:18:38.244Z,99839.64
2023-05-07T16:21:06.529Z,99864.21
2023-05-07T16:23:33.571Z,99856.74
2023-05-07T16:26:00.615Z,99833.66
2023-05-07T16:28:27.663Z,99817.62
2023-05-07T16:30:54.725Z,99839.69
2023-05-07T16:33:21.757Z,99872.30
2023-05-07T16:35:53.116Z,99908.25
2023-05-07T16:38:20.147Z,99943.86
2023-05-07T16:40:47.212Z,99988.85
2023-05-07T16:43:14.238Z,100005.08
2023-05-07T16:45:41.391Z,99993.30
2023-05-07T16:48:08.763Z,99979.23
2023-05-07T16:50:36.201Z,99950.44
2023-05-07T16:53:03.249Z,99955.47
2023-05-07T16:55:38.004Z,99981.30
2023-05-07T16:58:09.934Z,99989.55
2023-05-07T17:00:49.243Z,99966.27
2023-05-07T17:03:17.628Z,99977.62
2023-05-07T17:05:44.907Z,99971.49
2023-05-07T17:08:14.079Z,99985.05
2023-05-07T17:10:41.978Z,99980.14
2023-05-07T17:13:09.076Z,99971.41
2023-05-07T17:15:36.034Z,99983.06
2023-05-07T17:18:03.162Z,99971.70
2023-05-07T17:20:30.220Z,99972.10
2023-05-07T17:22:57.306Z,99974.77
2023-05-07T17:25:24.556Z,99976.74
2023-05-07T17:27:51.600Z,99970.59
2023-05-07T17:30:19.070Z,100005.42
2023-05-07T17:32:46.441Z,100029.08
2023-05-07T17:35:13.561Z,100014.35
2023-05-07T17:37:40.814Z,100003.19
2023-05-07T17:40:08.471Z,100035.20
2023-05-07T17:42:35.723Z,100062.13
2023-05-07T17:45:02.766Z,100057.02
2023-05-07T17:47:30.589Z,100079.58
2023-05-07T17:49:58.174Z,100080.50
2023-05-07T17:52:25.857Z,100096.13
2023-05-07T17:54:52.900Z,100107.42
2023-05-07T17:57:19.961Z,100136.02
2023-05-07T17:59:46.997Z,100146.51
2023-05-07T18:02:14.093Z,100147.08
2023-05-07T18:04:41.495Z,100150.06
2023-05-07T18:07:08.643Z,100160.30
2023-05-07T18:09:35.894Z,100178.13
2023-05-07T18:12:02.942Z,100194.60
2023-05-07T18:14:30.195Z,100198.42
2023-05-07T18:16:57.568Z,100216.10
2023-05-07T18:19:26.979Z,100236.04
2023-05-07T18:21:55.630Z,100263.05
2023-05-07T18:24:22.583Z,100280.61
2023-05-07T18:26:49.733Z,100302.80
2023-05-07T18:29:16.790Z,100316.33
2023-05-07T18:31:43.852Z,100316.88
2023-05-07T18:34:10.983Z,100339.57
2023-05-07T18:36:38.014Z,100358.97
2023-05-07T18:39:05.063Z,100366.31
2023-05-07T18:41:32.107Z,100375.35
2023-05-07T18:43:59.158Z,100395.29
2023-05-07T18:46:26.272Z,100398.10
2023-05-07T18:48:55.093Z,100411.48
2023-05-07T18:51:22.039Z,100413.09
2023-05-07T18:53:49.209Z,100417.79
2023-05-07T18:56:16.133Z,100442.67
2023-05-07T18:58:43.077Z,100453.11
2023-05-07T19:01:11.014Z,100472.02
2023-05-07T19:03:38.220Z,100484.55
2023-05-07T19:06:06.172Z,100484.25
2023-05-07T19:08:33.410Z,100505.70
2023-05-07T19:11:00.355Z,100521.27
2023-05-07T19:13:27.939Z,100539.41
2023-05-07T19:15:55.227Z,100560.70
2023-05-07T19:18:22.324Z,100585.23
2023-05-07T19:20:52.092Z,100611.88
2023-05-07T19:23:21.748Z,100629.02
2023-05-07T19:25:49.196Z,100641.34
2023-05-07T19:28:16.646Z,100635.69
2023-05-07T19:30:43.640Z,100655.55
2023-05-07T19:33:11.009Z,100667.66
2023-05-07T19:35:38.318Z,100685.09
2023-05-07T19:38:06.273Z,100684.45
2023-05-07T19:40:33.324Z,100689.30
2023-05-07T19:43:00.471Z,100718.45
2023-05-07T19:45:27.518Z,100731.24
2023-05-07T19:47:54.622Z,100737.63
2023-05-07T19:50:22.534Z,100761.14
2023-05-07T19:52:49.578Z,100775.48
2023-05-07T19:55:16.635Z,100789.51
2023-05-07T19:57:43.994Z,100819.23
2023-05-07T20:00:12.013Z,100844.97
2023-05-07T20:02:41.862Z,100888.34
2023-05-07T20:05:11.416Z,100921.85
2023-05-07T20:07:38.306Z,100959.15
2023-05-07T20:10:06.494Z,100975.41
2023-05-07T20:12:33.531Z,101004.93
2023-05-07T20:15:00.780Z,101027.02
2023-05-07T20:17:28.179Z,101046.70
2023-05-07T20:19:55.689Z,101063.96
2023-05-07T20:22:24.427Z,101094.65
2023-05-07T20:24:51.433Z,101117.94
2023-05-07T20:27:22.875Z,101152.77
2023-05-07T20:29:49.922Z,101186.39
2023-05-07T20:32:17.994Z,101211.21
2023-05-07T20:34:45.654Z,101251.18
2023-05-07T20:37:15.000Z,101269.81
2023-05-07T20:39:42.212Z,101305.11
2023-05-07T20:42:09.669Z,101336.63
2023-05-07T20:44:36.709Z,101357.11
2023-05-07T20:47:04.473Z,101376.92
2023-05-07T20:49:31.624Z,101398.44
2023-05-07T20:51:58.874Z,101430.45
2023-05-07T20:54:28.396Z,101449.21
2023-05-07T20:56:55.834Z,101465.73
2023-05-07T20:59:22.777Z,101481.75
2023-05-07T21:01:49.928Z,101500.13
2023-05-07T21:04:17.019Z,101524.39
2023-05-07T21:06:44.942Z,101542.12
2023-05-07T21:09:11.994Z,101561.39
2023-05-07T21:11:38.933Z,101583.58
2023-05-07T21:14:05.979Z,101594.39
2023-05-07T21:16:33.117Z,101613.14
2023-05-07T21:19:00.276Z,101629.98
2023-05-07T21:21:28.142Z,101643.91
2023-05-07T21:23:55.184Z,101655.95
2023-05-07T21:26:22.847Z,101669.19
2023-05-07T21:28:49.898Z,101677.45
2023-05-07T21:31:16.975Z,101679.14
2023-05-07T21:33:44.505Z,101685.67
2023-05-07T21:36:11.854Z,101692.55
2023-05-07T21:38:39.207Z,101690.14
2023-05-07T21:41:06.462Z,101698.05
2023-05-07T21:43:33.506Z,101705.45
2023-05-07T21:46:00.577Z,101724.89
2023-05-07T21:48:27.599Z,101735.71
2023-05-07T21:51:04.763Z,101745.67
2023-05-07T21:53:31.929Z,101755.46
2023-05-07T21:56:03.076Z,101767.30
2023-05-07T21:58:31.367Z,101773.83
2023-05-07T22:00:58.600Z,101783.80
2023-05-07T22:03:25.701Z,101789.30
2023-05-07T22:05:52.907Z,101797.22
2023-05-07T22:08:20.055Z,101797.91
2023-05-07T22:10:46.989Z,101805.13
2023-05-07T22:13:14.101Z,101822.67
2023-05-07T22:15:49.634Z,101820.43
2023-05-07T22:18:23.710Z,101811.84
2023-05-07T22:20:52.085Z,101798.95
2023-05-07T22:23:19.323Z,101789.54
2023-05-07T22:25:46.380Z,101792.51
2023-05-07T22:28:13.422Z,101785.29
2023-05-07T22:30:40.582Z,101778.62
2023-05-07T22:33:07.697Z,101752.13
2023-05-07T22:35:34.874Z,101713.96
2023-05-07T22:38:01.950Z,101691.98
2023-05-07T22:40:29.577Z,101673.62
2023-05-07T22:42:56.517Z,101650.74
2023-05-07T22:45:23.570Z,101629.42
2023-05-07T22:47:50.702Z,101598.64
2023-05-07T22:50:18.436Z,101574.55
2023-05-07T22:52:45.433Z,101540.83
2023-05-07T22:55:12.398Z,101535.52
2023-05-07T22:57:39.421Z,101510.55
2023-05-07T23:00:07.256Z,101506.59
2023-05-07T23:02:34.316Z,101496.95
2023-05-07T23:05:01.942Z,101485.94
2023-05-07T23:07:29.141Z,101470.43
2023-05-07T23:09:56.189Z,101446.84
2023-05-07T23:12:23.241Z,101427.23
2023-05-07T23:14:50.173Z,101414.48
2023-05-07T23:17:17.356Z,101413.45
2023-05-07T23:19:44.433Z,101410.36
2023-05-07T23:22:12.467Z,101408.97
2023-05-07T23:24:39.907Z,101405.71
2023-05-07T23:27:07.275Z,101408.45
2023-05-07T23:29:34.616Z,101407.09
2023-05-07T23:32:02.098Z,101385.55
2023-05-07T23:34:29.010Z,101377.45
2023-05-07T23:36:55.964Z,101376.59
2023-05-07T23:39:23.003Z,101376.24
2023-05-07T23:41:50.055Z,101384.49
2023-05-07T23:44:16.995Z,101376.73
2023-05-07T23:46:44.865Z,101378.64
2023-05-07T23:49:12.022Z,101381.02
2023-05-07T23:51:39.295Z,101381.02
2023-05-07T23:54:07.127Z,101379.80
2023-05-07T23:56:34.385Z,101371.86
2023-05-07T23:59:01.526Z,101388.91
